Flight Track Log - Related Links

Times and Time Zones

All times are in EDT time to prevent confusion due to time zone crossing. See the LXJ262 flight status page for this flight to view local times or setup timezone preferences in your user account.

Time Position Orientation Groundspeed Altitude Reporting Facility
EDT Latitude Longitude Course Direction KTS MPH feet Rate Location/Type
Sun 02:56:05 PM 39.6000 -104.8500 303° West 206 237 7,400  Level Denver TRACON
Sun 02:57:05 PM 39.6333 -104.9167 303° West 236 272 8,400 2,431 Climbing Denver TRACON
Sun 02:58:01 PM 39.5775 -104.9572 209° Southwest 256 295 12,100 3,254 Climbing Denver Center
Sun 02:59:03 PM 39.4961 -104.9217 161° South 285 328 14,800 2,537 Climbing Denver Center
Sun 03:00:04 PM 39.4214 -104.8825 158° South 292 336 17,300 3,268 Climbing Denver Center
Sun 03:01:06 PM 39.3275 -104.8625 171° South 331 381 21,500 3,000 Climbing Denver Center
Sun 03:02:08 PM 39.2506 -104.9494 221° Southwest 389 448 23,500 3,242 Climbing Denver Center
Sun 03:03:10 PM 39.1650 -105.0350 218° Southwest 383 441 28,200 3,097 Climbing Denver Center
Sun 03:04:12 PM 39.0642 -105.1111 210° Southwest 423 487 29,900 878 Climbing Denver Center
Sun 03:05:13 PM 38.9528 -105.1822 206° Southwest 442 509 30,000 145 Climbing Denver Center
Sun 03:06:16 PM 38.8475 -105.2489 206° Southwest 423 487 30,200 823 Climbing Denver Center
Sun 03:07:17 PM 38.7456 -105.3150 207° Southwest 410 472 31,700 1,317 Climbing Denver Center
Sun 03:08:19 PM 38.6406 -105.3808 206° Southwest 415 478 32,900 1,113 Climbing Denver Center
Sun 03:09:21 PM 38.5194 -105.4583 207° Southwest 414 476 34,000 532 Climbing Denver Center
Sun 03:10:23 PM 38.4097 -105.5278 206° Southwest 431 496 34,000  Level Denver Center
Sun 03:11:25 PM 38.2897 -105.6031 206° Southwest 454 522 34,000 581 Level Denver Center
Sun 03:12:27 PM 38.1828 -105.6708 206° Southwest 450 518 35,200 2,293 Climbing Denver Center
Sun 03:13:28 PM 38.0583 -105.7492 206° Southwest 449 517 38,700 2,341 Climbing Denver Center
Sun 03:14:30 PM 37.9828 -105.8328 221° Southwest 388 447 40,000 629 Climbing Denver Center
Sun 03:15:32 PM 37.9261 -105.9386 236° Southwest 378 435 40,000  Level Denver Center
Sun 03:16:34 PM 37.8608 -106.0636 237° Southwest 382 440 40,000  Level Denver Center
Sun 03:17:36 PM 37.7981 -106.1800 236° Southwest 377 434 40,000  Level Denver Center
Sun 03:18:38 PM 37.7419 -106.2869 236° Southwest 380 437 40,000  Level Denver Center
Sun 03:19:40 PM 37.6747 -106.4100 235° Southwest 380 437 40,000 48 Level Denver Center
Sun 03:20:42 PM 37.6158 -106.5203 236° Southwest 395 455 40,100  Climbing Denver Center
Sun 03:21:44 PM 37.5564 -106.6319 236° Southwest 399 459 40,000 -48 Descending Denver Center
Sun 03:22:46 PM 37.4867 -106.7583 235° Southwest 393 452 40,000  Level Denver Center
Sun 03:23:47 PM 37.4303 -106.8664 237° Southwest 387 445 40,000  Level Denver Center
Sun 03:24:49 PM 37.3667 -106.9944 238° Southwest 387 445 40,000  Level Denver Center
Sun 03:25:51 PM 37.3175 -107.1067 241° Southwest 383 441 40,000  Level Denver Center
Sun 03:26:53 PM 37.2586 -107.2375 241° Southwest 385 443 40,000  Level Denver Center
Sun 03:27:55 PM 37.2078 -107.3522 241° Southwest 393 452 40,000  Level Denver Center
Sun 03:28:57 PM 37.1469 -107.4878 241° Southwest 397 457 40,000  Level Denver Center
Sun 03:29:59 PM 37.0942 -107.6050 241° Southwest 402 463 40,000  Level Denver Center
Sun 03:31:01 PM 37.0331 -107.7400 240° Southwest 401 461 40,000  Level Denver Center
Sun 03:32:03 PM 36.9797 -107.8581 241° Southwest 403 464 40,000  Level Denver Center
Sun 03:33:05 PM 36.9272 -107.9742 241° Southwest 402 463 40,000  Level Denver Center
Sun 03:34:06 PM 36.8658 -108.1106 241° Southwest 402 463 40,000  Level Denver Center
Sun 03:35:08 PM 36.8131 -108.2250 240° Southwest 400 460 40,000  Level Denver Center
Sun 03:36:10 PM 36.7525 -108.3572 240° Southwest 395 455 40,000  Level Denver Center
Sun 03:37:12 PM 36.7006 -108.4703 240° Southwest 394 453 40,000  Level Denver Center
Sun 03:38:14 PM 36.6397 -108.6028 240° Southwest 394 453 40,000  Level Denver Center
Sun 03:39:16 PM 36.5875 -108.7153 240° Southwest 395 455 40,000  Level Denver Center
Sun 03:40:18 PM 36.5258 -108.8475 240° Southwest 397 457 40,000  Level Denver Center
Sun 03:41:20 PM 36.4722 -108.9594 239° Southwest 396 456 40,000  Level Denver Center
Sun 03:42:22 PM 36.4106 -109.0917 240° Southwest 397 457 40,000  Level Denver Center
Sun 03:43:24 PM 36.3572 -109.2053 240° Southwest 400 460 40,000  Level Denver Center
Sun 03:44:26 PM 36.2944 -109.3389 240° Southwest 403 464 40,000 -242 Level Denver Center
Sun 03:45:28 PM 36.2406 -109.4519 239° Southwest 402 463 39,500 -823 Descending Denver Center
Sun 03:46:30 PM 36.1792 -109.5783 239° Southwest 389 448 38,300 -1,065 Descending Denver Center
Sun 03:47:32 PM 36.1292 -109.6858 240° Southwest 381 438 37,300 -1,210 Descending Denver Center
Sun 03:48:34 PM 36.0661 -109.8161 239° Southwest 392 451 35,800 -1,317 Descending Denver Center
Sun 03:49:35 PM 36.0103 -109.9300 239° Southwest 402 463 34,600 -1,073 Descending Denver Center
Sun 03:50:37 PM 35.9472 -110.0614 239° Southwest 400 460 33,600 -1,161 Descending Denver Center
Sun 03:51:39 PM 35.8894 -110.1803 239° Southwest 403 464 32,200 -774 Descending Denver Center
Sun 03:52:41 PM 35.8317 -110.2978 239° Southwest 402 463 32,000 -98 Descending Denver Center
Sun 03:53:41 PM 35.7700 -110.4172 238° Southwest 397 457 32,000  Level Albuquerque Center
Sun 03:54:43 PM 35.7158 -110.5286 239° Southwest 397 457 32,000  Level Albuquerque Center
Sun 03:55:45 PM 35.6519 -110.6575 239° Southwest 396 456 32,000 -48 Level Albuquerque Center
Sun 03:56:48 PM 35.5992 -110.7700 240° Southwest 396 456 31,900 -624 Descending Albuquerque Center
Sun 03:57:50 PM 35.5300 -110.9033 238° Southwest 410 472 30,700 -1,113 Descending Albuquerque Center
Sun 03:58:52 PM 35.4722 -111.0217 239° Southwest 421 484 29,600 -1,113 Descending Albuquerque Center
Sun 03:59:54 PM 35.4036 -111.1600 239° Southwest 424 488 28,400 -1,113 Descending Albuquerque Center
Sun 04:00:56 PM 35.3444 -111.2781 238° Southwest 424 488 27,300 -1,113 Descending Albuquerque Center
Sun 04:01:58 PM 35.2669 -111.3997 232° Southwest 438 504 26,100 -1,065 Descending Albuquerque Center
Sun 04:03:00 PM 35.1508 -111.4619 204° Southwest 452 520 25,100 -1,016 Descending Albuquerque Center
Sun 04:04:02 PM 35.0350 -111.5183 202° Southwest 451 519 24,000 -1,065 Descending Albuquerque Center
Sun 04:05:04 PM 34.9178 -111.5761 202° Southwest 452 520 22,900 -1,065 Descending Albuquerque Center
Sun 04:06:06 PM 34.8028 -111.6317 202° Southwest 449 517 21,800 -1,161 Descending Albuquerque Center
Sun 04:07:08 PM 34.6658 -111.6992 202° Southwest 444 511 20,500 -1,161 Descending Albuquerque Center
Sun 04:08:10 PM 34.5550 -111.7519 201° Southwest 435 501 19,400 -1,597 Descending Albuquerque Center
Sun 04:09:12 PM 34.4597 -111.7981 202° Southwest 383 441 17,200 -2,081 Descending Albuquerque Center
Sun 04:10:14 PM 34.3728 -111.8397 202° Southwest 348 400 15,100 -1,935 Descending Albuquerque Center
Sun 04:11:16 PM 34.2908 -111.8789 202° Southwest 325 374 13,200 -1,984 Descending Albuquerque Center
Sun 04:12:18 PM 34.2014 -111.9194 201° Southwest 294 338 11,000 -1,065 Descending Albuquerque Center
Sun 04:13:20 PM 34.1225 -111.9267 184° South 280 322 11,000 -387 Level Albuquerque Center
Sun 04:14:22 PM 34.0439 -111.9306 182° South 293 337 10,200 -1,306 Descending Albuquerque Center
Sun 04:15:24 PM 33.9692 -111.9228 175° South 277 319 8,300 -1,548 Descending Albuquerque Center
Sun 04:16:26 PM 33.8825 -111.9078 172° South 266 306 7,000 -629 Descending Albuquerque Center
Sun 04:17:28 PM 33.8144 -111.8947 171° South 253 291 7,000 194 Level Albuquerque Center
Sun 04:18:30 PM 33.7656 -111.8686 156° South 208 239 7,400 -823 Climbing Albuquerque Center
Sun 04:19:32 PM 33.7161 -111.8814 192° South 203 234 5,300 -2,032 Descending Albuquerque Center
Sun 04:20:34 PM 33.6767 -111.8592 155° Southeast 197 227 3,200 -1,645 Descending Albuquerque Center
Sun 04:21:36 PM 33.6433 -111.8872 215° Southwest 164 189 1,900 -871 Descending Albuquerque Center
Sun 04:22:38 PM 33.6197 -111.9100 219° Southwest 132 152 1,400 -484 Descending Albuquerque Center

Login

Don't have an account? Register now (free) for customized features, flight alerts, and more!